createdAt,value
2022-10-23T00:00:01.972Z,951.73
2022-10-23T00:00:12.034Z,951.73
2022-10-23T00:00:22.005Z,951.73
2022-10-23T00:00:32.047Z,951.74
2022-10-23T00:00:42.025Z,951.74
2022-10-23T00:00:52.039Z,951.74
2022-10-23T00:01:01.971Z,951.74
2022-10-23T00:01:11.975Z,951.74
2022-10-23T00:01:21.974Z,951.74
2022-10-23T00:01:31.977Z,951.74
2022-10-23T00:01:41.961Z,951.74
2022-10-23T00:01:51.977Z,951.74
2022-10-23T00:02:02.059Z,951.74
2022-10-23T00:02:12.016Z,951.73
2022-10-23T00:02:21.997Z,951.74
2022-10-23T00:02:32.048Z,951.74
2022-10-23T00:02:42.280Z,951.74
2022-10-23T00:02:52.029Z,951.74
2022-10-23T00:03:01.967Z,951.74
2022-10-23T00:03:11.985Z,951.75
2022-10-23T00:03:21.983Z,951.75
2022-10-23T00:03:31.985Z,951.75
2022-10-23T00:03:41.986Z,951.75
2022-10-23T00:03:51.985Z,951.76
2022-10-23T00:04:01.986Z,951.76
2022-10-23T00:04:11.987Z,951.77
2022-10-23T00:04:21.993Z,951.77
2022-10-23T00:04:31.989Z,951.77
2022-10-23T00:04:41.988Z,951.78
2022-10-23T00:04:51.990Z,951.78
2022-10-23T00:05:01.995Z,951.78
2022-10-23T00:05:12.004Z,951.79
2022-10-23T00:05:21.993Z,951.78
2022-10-23T00:05:31.996Z,951.79
2022-10-23T00:05:41.997Z,951.79
2022-10-23T00:05:51.994Z,951.79
2022-10-23T00:06:01.996Z,951.79
2022-10-23T00:06:11.997Z,951.79
2022-10-23T00:06:22.005Z,951.79
2022-10-23T00:06:31.999Z,951.80
2022-10-23T00:06:41.999Z,951.79
2022-10-23T00:06:51.998Z,951.79
2022-10-23T00:07:02.005Z,951.79
2022-10-23T00:07:12.004Z,951.80
2022-10-23T00:07:22.043Z,951.79
2022-10-23T00:07:32.018Z,951.80
2022-10-23T00:07:42.006Z,951.80
2022-10-23T00:07:52.008Z,951.81
2022-10-23T00:08:02.009Z,951.81
2022-10-23T00:08:12.003Z,951.81
2022-10-23T00:08:22.013Z,951.82
2022-10-23T00:08:32.012Z,951.82
2022-10-23T00:08:42.005Z,951.83
2022-10-23T00:08:52.008Z,951.83
2022-10-23T00:09:02.007Z,951.84
2022-10-23T00:09:12.008Z,951.84
2022-10-23T00:09:22.030Z,951.84
2022-10-23T00:09:32.012Z,951.84
2022-10-23T00:09:42.013Z,951.85
2022-10-23T00:09:52.010Z,951.85
2022-10-23T00:10:02.012Z,951.85
2022-10-23T00:10:12.033Z,951.86
2022-10-23T00:10:22.012Z,951.86
2022-10-23T00:10:32.011Z,951.86
2022-10-23T00:10:42.014Z,951.86
2022-10-23T00:10:52.014Z,951.86
2022-10-23T00:11:02.014Z,951.86
2022-10-23T00:11:12.016Z,951.87
2022-10-23T00:11:22.015Z,951.87
2022-10-23T00:11:32.026Z,951.87
2022-10-23T00:11:42.017Z,951.88
2022-10-23T00:11:52.039Z,951.88
2022-10-23T00:12:02.020Z,951.88
2022-10-23T00:12:12.022Z,951.88
2022-10-23T00:12:22.022Z,951.88
2022-10-23T00:12:32.022Z,951.88
2022-10-23T00:12:42.246Z,951.88
2022-10-23T00:12:52.031Z,951.88
2022-10-23T00:13:02.024Z,951.88
2022-10-23T00:13:12.027Z,951.89
2022-10-23T00:13:22.026Z,951.89
2022-10-23T00:13:32.029Z,951.88
2022-10-23T00:13:42.025Z,951.89
2022-10-23T00:13:52.028Z,951.89
2022-10-23T00:14:02.029Z,951.89
2022-10-23T00:14:12.034Z,951.90
2022-10-23T00:14:22.037Z,951.90
2022-10-23T00:14:32.031Z,951.90
2022-10-23T00:14:42.032Z,951.91
2022-10-23T00:14:52.032Z,951.90
2022-10-23T00:15:02.034Z,951.91
2022-10-23T00:15:12.062Z,951.90
2022-10-23T00:15:22.070Z,951.91
2022-10-23T00:15:32.038Z,951.91
2022-10-23T00:15:42.104Z,951.91
2022-10-23T00:16:02.043Z,951.91
2022-10-23T00:16:12.041Z,951.91
2022-10-23T00:16:22.042Z,951.91
2022-10-23T00:16:32.039Z,951.91
2022-10-23T00:16:42.042Z,951.91
2022-10-23T00:16:52.043Z,951.92
2022-10-23T00:17:02.046Z,951.92
2022-10-23T00:17:12.045Z,951.92
2022-10-23T00:17:22.062Z,951.92
2022-10-23T00:17:32.047Z,951.92
2022-10-23T00:17:42.380Z,951.92
2022-10-23T00:17:52.034Z,951.92
2022-10-23T00:18:02.034Z,951.92
2022-10-23T00:18:12.053Z,951.92
2022-10-23T00:18:22.051Z,951.93
2022-10-23T00:18:32.049Z,951.93
2022-10-23T00:18:42.053Z,951.93
2022-10-23T00:18:52.054Z,951.93
2022-10-23T00:19:02.055Z,951.93
2022-10-23T00:19:12.053Z,951.93
2022-10-23T00:19:22.069Z,951.93
2022-10-23T00:19:32.057Z,951.92
2022-10-23T00:19:42.062Z,951.92
2022-10-23T00:19:52.082Z,951.92
2022-10-23T00:20:02.058Z,951.92
2022-10-23T00:20:12.072Z,951.92
2022-10-23T00:20:22.068Z,951.92
2022-10-23T00:20:32.070Z,951.91
2022-10-23T00:20:42.067Z,951.91
2022-10-23T00:20:52.065Z,951.91
2022-10-23T00:21:02.064Z,951.91
2022-10-23T00:21:12.063Z,951.91
2022-10-23T00:21:22.072Z,951.91
2022-10-23T00:21:32.069Z,951.90
2022-10-23T00:21:42.070Z,951.90
2022-10-23T00:21:52.056Z,951.90
2022-10-23T00:22:02.072Z,951.90
2022-10-23T00:22:12.056Z,951.90
2022-10-23T00:22:22.073Z,951.90
2022-10-23T00:22:32.071Z,951.90
2022-10-23T00:22:42.075Z,951.90
2022-10-23T00:22:52.077Z,951.90
2022-10-23T00:23:02.071Z,951.89
2022-10-23T00:23:12.072Z,951.89
2022-10-23T00:23:22.074Z,951.89
2022-10-23T00:23:32.075Z,951.89
2022-10-23T00:23:42.075Z,951.89
2022-10-23T00:23:52.086Z,951.89
2022-10-23T00:24:02.139Z,951.89
2022-10-23T00:24:12.073Z,951.89
2022-10-23T00:24:22.081Z,951.89
2022-10-23T00:24:32.085Z,951.88
2022-10-23T00:24:42.083Z,951.88
2022-10-23T00:24:52.083Z,951.88
2022-10-23T00:25:02.088Z,951.88
2022-10-23T00:25:12.135Z,951.88
2022-10-23T00:25:22.083Z,951.88
2022-10-23T00:25:32.091Z,951.87
2022-10-23T00:25:42.089Z,951.87
2022-10-23T00:25:52.090Z,951.87
2022-10-23T00:26:02.088Z,951.87
2022-10-23T00:26:12.091Z,951.87
2022-10-23T00:26:22.093Z,951.86
2022-10-23T00:26:32.091Z,951.87
2022-10-23T00:26:42.094Z,951.86
2022-10-23T00:26:52.095Z,951.86
2022-10-23T00:27:02.097Z,951.85
2022-10-23T00:27:12.096Z,951.86
2022-10-23T00:27:22.098Z,951.86
2022-10-23T00:27:32.096Z,951.86
2022-10-23T00:27:42.371Z,951.85
2022-10-23T00:27:52.100Z,951.85
2022-10-23T00:28:02.100Z,951.85
2022-10-23T00:28:12.101Z,951.86
2022-10-23T00:28:22.103Z,951.86
2022-10-23T00:28:32.106Z,951.85
2022-10-23T00:28:42.108Z,951.85
2022-10-23T00:28:52.105Z,951.85
2022-10-23T00:29:02.106Z,951.85
2022-10-23T00:29:12.108Z,951.85
2022-10-23T00:29:22.095Z,951.85
2022-10-23T00:29:32.107Z,951.85
2022-10-23T00:29:42.108Z,951.85
2022-10-23T00:29:52.115Z,951.85
2022-10-23T00:30:02.095Z,951.85
2022-10-23T00:30:12.112Z,951.85
2022-10-23T00:30:22.100Z,951.85
2022-10-23T00:30:32.110Z,951.85
2022-10-23T00:30:42.113Z,951.84
2022-10-23T00:30:52.116Z,951.84
2022-10-23T00:31:02.119Z,951.83
2022-10-23T00:31:12.123Z,951.83
2022-10-23T00:31:22.141Z,951.82
2022-10-23T00:31:32.123Z,951.82
2022-10-23T00:31:42.118Z,951.82
2022-10-23T00:31:52.128Z,951.81
2022-10-23T00:32:02.122Z,951.81
2022-10-23T00:32:12.123Z,951.81
2022-10-23T00:32:22.190Z,951.81
2022-10-23T00:32:42.123Z,951.80
2022-10-23T00:32:52.128Z,951.80
2022-10-23T00:33:02.124Z,951.80
2022-10-23T00:33:12.125Z,951.80
2022-10-23T00:33:22.125Z,951.80
2022-10-23T00:33:32.126Z,951.80
2022-10-23T00:33:42.130Z,951.80
2022-10-23T00:33:52.128Z,951.80
2022-10-23T00:34:02.127Z,951.80
2022-10-23T00:34:12.131Z,951.80
2022-10-23T00:34:22.131Z,951.81
2022-10-23T00:34:32.128Z,951.81
2022-10-23T00:34:42.136Z,951.81
2022-10-23T00:34:52.135Z,951.81
2022-10-23T00:35:02.133Z,951.81
2022-10-23T00:35:12.123Z,951.81
2022-10-23T00:35:22.145Z,951.81
2022-10-23T00:35:32.135Z,951.81
2022-10-23T00:35:42.136Z,951.81
2022-10-23T00:35:52.136Z,951.81
2022-10-23T00:36:02.136Z,951.81
2022-10-23T00:36:12.147Z,951.81
2022-10-23T00:36:22.138Z,951.81
2022-10-23T00:36:32.126Z,951.81
2022-10-23T00:36:42.139Z,951.81
2022-10-23T00:36:52.143Z,951.81
2022-10-23T00:37:02.139Z,951.80
2022-10-23T00:37:12.145Z,951.80
2022-10-23T00:37:22.147Z,951.80
2022-10-23T00:37:32.143Z,951.79
2022-10-23T00:37:42.344Z,951.79
2022-10-23T00:37:52.149Z,951.79
2022-10-23T00:38:02.147Z,951.78
2022-10-23T00:38:12.148Z,951.78
2022-10-23T00:38:22.148Z,951.78
2022-10-23T00:38:32.152Z,951.78
2022-10-23T00:38:42.153Z,951.77
2022-10-23T00:38:52.151Z,951.77
2022-10-23T00:39:02.155Z,951.77
2022-10-23T00:39:12.156Z,951.76
2022-10-23T00:39:22.154Z,951.76
2022-10-23T00:39:32.156Z,951.76
2022-10-23T00:39:42.157Z,951.76
2022-10-23T00:39:52.155Z,951.76
2022-10-23T00:40:02.182Z,951.76
2022-10-23T00:40:12.164Z,951.76
2022-10-23T00:40:22.161Z,951.76
2022-10-23T00:40:32.159Z,951.76
2022-10-23T00:40:42.216Z,951.76
2022-10-23T00:40:52.192Z,951.76
2022-10-23T00:41:02.164Z,951.76
2022-10-23T00:41:12.161Z,951.76
2022-10-23T00:41:22.167Z,951.75
2022-10-23T00:41:32.173Z,951.76
2022-10-23T00:41:42.148Z,951.76
2022-10-23T00:41:52.164Z,951.76
2022-10-23T00:42:02.165Z,951.77
2022-10-23T00:42:12.167Z,951.77
2022-10-23T00:42:22.166Z,951.77
2022-10-23T00:42:32.167Z,951.78
2022-10-23T00:42:42.569Z,951.78
2022-10-23T00:42:52.174Z,951.78
2022-10-23T00:43:02.169Z,951.78
2022-10-23T00:43:12.171Z,951.78
2022-10-23T00:43:22.161Z,951.79
2022-10-23T00:43:32.171Z,951.79
2022-10-23T00:43:42.187Z,951.79
2022-10-23T00:43:52.178Z,951.79
2022-10-23T00:44:02.185Z,951.79
2022-10-23T00:44:12.173Z,951.79
2022-10-23T00:44:22.173Z,951.79
2022-10-23T00:44:32.176Z,951.79
2022-10-23T00:44:42.177Z,951.79
2022-10-23T00:44:52.174Z,951.80
2022-10-23T00:45:02.179Z,951.80
2022-10-23T00:45:12.177Z,951.79
2022-10-23T00:45:22.180Z,951.79
2022-10-23T00:45:32.177Z,951.79
2022-10-23T00:45:42.176Z,951.79
2022-10-23T00:45:52.179Z,951.79
2022-10-23T00:46:02.182Z,951.79
2022-10-23T00:46:12.180Z,951.79
2022-10-23T00:46:22.179Z,951.79
2022-10-23T00:46:32.181Z,951.78
2022-10-23T00:46:42.167Z,951.79
2022-10-23T00:46:52.181Z,951.79
2022-10-23T00:47:02.184Z,951.78
2022-10-23T00:47:12.186Z,951.78
2022-10-23T00:47:22.186Z,951.78
2022-10-23T00:47:32.187Z,951.78
2022-10-23T00:47:42.188Z,951.77
2022-10-23T00:47:52.189Z,951.77
2022-10-23T00:48:02.187Z,951.77
2022-10-23T00:48:12.191Z,951.77
2022-10-23T00:48:22.195Z,951.77
2022-10-23T00:48:32.190Z,951.77
2022-10-23T00:48:42.190Z,951.77
2022-10-23T00:48:52.189Z,951.77
2022-10-23T00:49:02.225Z,951.77
2022-10-23T00:49:22.195Z,951.77
2022-10-23T00:49:33.611Z,951.77
2022-10-23T00:49:42.914Z,951.77
2022-10-23T00:49:52.196Z,951.77
2022-10-23T00:50:02.202Z,951.77
2022-10-23T00:50:12.214Z,951.76
2022-10-23T00:50:22.200Z,951.76
2022-10-23T00:50:32.198Z,951.76
2022-10-23T00:50:42.203Z,951.76
2022-10-23T00:50:52.199Z,951.76
2022-10-23T00:51:02.201Z,951.76
2022-10-23T00:51:12.201Z,951.76
2022-10-23T00:51:22.202Z,951.76
2022-10-23T00:51:32.204Z,951.76
2022-10-23T00:51:42.205Z,951.76
2022-10-23T00:51:52.212Z,951.76
2022-10-23T00:52:02.192Z,951.76
2022-10-23T00:52:12.210Z,951.76
2022-10-23T00:52:22.210Z,951.76
2022-10-23T00:52:32.209Z,951.75
2022-10-23T00:52:42.459Z,951.76
2022-10-23T00:52:52.213Z,951.76
2022-10-23T00:53:02.210Z,951.76
2022-10-23T00:53:12.218Z,951.76
2022-10-23T00:53:22.212Z,951.75
2022-10-23T00:53:32.214Z,951.75
2022-10-23T00:53:42.219Z,951.76
2022-10-23T00:54:01.287Z,951.76
2022-10-23T00:54:22.942Z,951.75
2022-10-23T00:54:23.526Z,951.76
2022-10-23T00:54:24.677Z,951.75
2022-10-23T00:54:32.219Z,951.75
2022-10-23T00:54:42.211Z,951.75
2022-10-23T00:54:52.218Z,951.75
2022-10-23T00:55:02.223Z,951.75
2022-10-23T00:55:12.253Z,951.75
2022-10-23T00:55:22.225Z,951.75
2022-10-23T00:55:32.222Z,951.75
2022-10-23T00:55:42.225Z,951.75
2022-10-23T00:55:52.226Z,951.75
2022-10-23T00:56:02.229Z,951.75
2022-10-23T00:56:12.226Z,951.75
2022-10-23T00:56:22.228Z,951.75
2022-10-23T00:56:32.231Z,951.75
2022-10-23T00:56:42.228Z,951.75
2022-10-23T00:56:52.233Z,951.75
2022-10-23T00:57:02.230Z,951.75
2022-10-23T00:57:12.232Z,951.75
2022-10-23T00:57:22.298Z,951.75
2022-10-23T00:57:32.220Z,951.76
2022-10-23T00:57:42.219Z,951.75
2022-10-23T00:57:52.235Z,951.75
2022-10-23T00:58:02.238Z,951.75
2022-10-23T00:58:12.240Z,951.75
2022-10-23T00:58:22.238Z,951.75
2022-10-23T00:58:32.239Z,951.75
2022-10-23T00:58:42.240Z,951.75
2022-10-23T00:58:52.241Z,951.75
2022-10-23T00:59:02.242Z,951.74
2022-10-23T00:59:12.241Z,951.74
2022-10-23T00:59:22.243Z,951.74
2022-10-23T00:59:32.246Z,951.74
2022-10-23T00:59:42.266Z,951.73
2022-10-23T00:59:52.245Z,951.73
2022-10-23T01:00:02.246Z,951.73
2022-10-23T01:00:12.229Z,951.73
2022-10-23T01:00:22.250Z,951.73
2022-10-23T01:00:32.249Z,951.73
2022-10-23T01:00:42.250Z,951.73
2022-10-23T01:00:52.248Z,951.73
2022-10-23T01:01:02.342Z,951.73
2022-10-23T01:01:12.449Z,951.73
2022-10-23T01:01:22.369Z,951.73
2022-10-23T01:01:32.377Z,951.73
2022-10-23T01:01:42.332Z,951.74
2022-10-23T01:01:52.400Z,951.74
2022-10-23T01:02:02.393Z,951.74
2022-10-23T01:02:12.415Z,951.74
2022-10-23T01:02:22.327Z,951.74
2022-10-23T01:02:32.326Z,951.74
2022-10-23T01:02:42.592Z,951.74
2022-10-23T01:02:52.258Z,951.74
2022-10-23T01:03:02.257Z,951.75
2022-10-23T01:03:12.257Z,951.75
2022-10-23T01:03:22.258Z,951.75
2022-10-23T01:03:32.262Z,951.75
2022-10-23T01:03:42.244Z,951.75
2022-10-23T01:03:52.260Z,951.75
2022-10-23T01:04:02.264Z,951.75
2022-10-23T01:04:12.262Z,951.75
2022-10-23T01:04:22.267Z,951.75
2022-10-23T01:04:32.267Z,951.75
2022-10-23T01:04:42.248Z,951.75
2022-10-23T01:04:52.268Z,951.75
2022-10-23T01:05:02.265Z,951.75
2022-10-23T01:05:12.270Z,951.74
2022-10-23T01:05:22.267Z,951.74
2022-10-23T01:05:32.275Z,951.73
2022-10-23T01:05:42.287Z,951.73
2022-10-23T01:05:52.276Z,951.72
2022-10-23T01:06:02.284Z,951.72
2022-10-23T01:06:12.278Z,951.71
2022-10-23T01:06:22.276Z,951.71
2022-10-23T01:06:32.286Z,951.71
2022-10-23T01:06:42.278Z,951.70
2022-10-23T01:06:52.279Z,951.69
2022-10-23T01:07:02.286Z,951.69
2022-10-23T01:07:12.285Z,951.69
2022-10-23T01:07:22.282Z,951.69
2022-10-23T01:07:32.295Z,951.69
2022-10-23T01:07:42.648Z,951.69
2022-10-23T01:07:52.284Z,951.68
2022-10-23T01:08:02.283Z,951.69
2022-10-23T01:08:12.287Z,951.68
2022-10-23T01:08:22.297Z,951.69
2022-10-23T01:08:32.296Z,951.69
2022-10-23T01:08:42.288Z,951.69
2022-10-23T01:08:52.292Z,951.69
2022-10-23T01:09:02.289Z,951.69
2022-10-23T01:09:12.290Z,951.69
2022-10-23T01:09:22.292Z,951.69
2022-10-23T01:09:32.292Z,951.69
2022-10-23T01:09:42.293Z,951.70
2022-10-23T01:09:52.295Z,951.70
2022-10-23T01:10:02.296Z,951.71
2022-10-23T01:10:12.297Z,951.71
2022-10-23T01:10:22.317Z,951.71
2022-10-23T01:10:32.300Z,951.71
2022-10-23T01:10:42.299Z,951.72
2022-10-23T01:10:52.301Z,951.72
2022-10-23T01:11:02.300Z,951.72
2022-10-23T01:11:12.301Z,951.73
2022-10-23T01:11:22.305Z,951.73
2022-10-23T01:11:32.302Z,951.73
2022-10-23T01:11:42.325Z,951.73
2022-10-23T01:11:52.305Z,951.74
2022-10-23T01:12:02.310Z,951.74
2022-10-23T01:12:12.308Z,951.74
2022-10-23T01:12:22.309Z,951.74
2022-10-23T01:12:32.310Z,951.74
2022-10-23T01:12:42.312Z,951.74
2022-10-23T01:12:52.300Z,951.74
2022-10-23T01:13:02.312Z,951.74
2022-10-23T01:13:12.304Z,951.74
2022-10-23T01:13:22.320Z,951.74
2022-10-23T01:13:32.319Z,951.74
2022-10-23T01:13:42.450Z,951.74
2022-10-23T01:13:52.351Z,951.74
2022-10-23T01:14:12.306Z,951.74
2022-10-23T01:14:22.324Z,951.74
2022-10-23T01:14:32.326Z,951.74
2022-10-23T01:14:42.324Z,951.74
2022-10-23T01:14:52.325Z,951.74
2022-10-23T01:15:02.329Z,951.73
2022-10-23T01:15:12.316Z,951.73
2022-10-23T01:15:22.343Z,951.74
2022-10-23T01:15:32.329Z,951.74
2022-10-23T01:15:42.344Z,951.74
2022-10-23T01:15:52.330Z,951.74
2022-10-23T01:16:02.334Z,951.74
2022-10-23T01:16:12.318Z,951.74
2022-10-23T01:16:22.319Z,951.74
2022-10-23T01:16:32.318Z,951.74
2022-10-23T01:16:42.343Z,951.74
2022-10-23T01:16:52.321Z,951.74
2022-10-23T01:17:02.337Z,951.74
2022-10-23T01:17:12.337Z,951.74
2022-10-23T01:17:22.338Z,951.74
2022-10-23T01:17:32.338Z,951.75
2022-10-23T01:17:44.500Z,951.74
2022-10-23T01:17:52.343Z,951.74
2022-10-23T01:18:02.343Z,951.74
2022-10-23T01:18:12.344Z,951.74
2022-10-23T01:18:22.329Z,951.74
2022-10-23T01:18:32.347Z,951.74
2022-10-23T01:18:42.345Z,951.74
2022-10-23T01:18:52.346Z,951.73
2022-10-23T01:19:02.351Z,951.73
2022-10-23T01:19:12.348Z,951.73
2022-10-23T01:19:22.350Z,951.72
2022-10-23T01:19:32.348Z,951.71
2022-10-23T01:19:42.351Z,951.71
2022-10-23T01:19:52.350Z,951.71
2022-10-23T01:20:02.354Z,951.71
2022-10-23T01:20:12.354Z,951.70
2022-10-23T01:20:22.371Z,951.70
2022-10-23T01:20:32.355Z,951.69
2022-10-23T01:20:42.356Z,951.69
2022-10-23T01:20:52.358Z,951.68
2022-10-23T01:21:02.357Z,951.68
2022-10-23T01:21:12.356Z,951.67
2022-10-23T01:21:22.364Z,951.67
2022-10-23T01:21:32.362Z,951.67
2022-10-23T01:21:42.360Z,951.66
2022-10-23T01:21:52.363Z,951.66
2022-10-23T01:22:02.364Z,951.65
2022-10-23T01:22:12.382Z,951.65
2022-10-23T01:22:22.405Z,951.64
2022-10-23T01:22:32.368Z,951.64
2022-10-23T01:22:42.582Z,951.63
2022-10-23T01:22:52.371Z,951.63
2022-10-23T01:23:02.368Z,951.62
2022-10-23T01:23:12.353Z,951.62
2022-10-23T01:23:22.381Z,951.62
2022-10-23T01:23:32.377Z,951.62
2022-10-23T01:23:42.372Z,951.61
2022-10-23T01:23:52.376Z,951.61
2022-10-23T01:24:02.378Z,951.61
2022-10-23T01:24:12.378Z,951.61
2022-10-23T01:24:22.383Z,951.61
2022-10-23T01:24:32.385Z,951.61
2022-10-23T01:24:42.377Z,951.61
2022-10-23T01:24:52.380Z,951.60
2022-10-23T01:25:02.377Z,951.60
2022-10-23T01:25:12.378Z,951.60
2022-10-23T01:25:22.421Z,951.60
2022-10-23T01:25:32.385Z,951.60
2022-10-23T01:25:42.382Z,951.60
2022-10-23T01:25:52.386Z,951.60
2022-10-23T01:26:02.390Z,951.60
2022-10-23T01:26:12.383Z,951.60
2022-10-23T01:26:22.389Z,951.60
2022-10-23T01:26:32.386Z,951.60
2022-10-23T01:26:42.388Z,951.60
2022-10-23T01:26:52.389Z,951.60
2022-10-23T01:27:02.391Z,951.60
2022-10-23T01:27:12.390Z,951.60
2022-10-23T01:27:22.388Z,951.60
2022-10-23T01:27:32.391Z,951.60
2022-10-23T01:27:42.377Z,951.60
2022-10-23T01:27:52.394Z,951.60
2022-10-23T01:28:02.395Z,951.59
2022-10-23T01:28:12.395Z,951.59
2022-10-23T01:28:22.396Z,951.60
2022-10-23T01:28:32.396Z,951.59
2022-10-23T01:28:42.399Z,951.59
2022-10-23T01:28:52.398Z,951.59
2022-10-23T01:29:02.399Z,951.58
2022-10-23T01:29:12.402Z,951.58
2022-10-23T01:29:22.402Z,951.58
2022-10-23T01:29:32.404Z,951.58
2022-10-23T01:29:42.405Z,951.58
2022-10-23T01:29:52.409Z,951.57
2022-10-23T01:30:02.409Z,951.57
2022-10-23T01:30:12.412Z,951.57
2022-10-23T01:30:22.411Z,951.56
2022-10-23T01:30:32.450Z,951.56
2022-10-23T01:30:52.413Z,951.56
2022-10-23T01:31:02.416Z,951.56
2022-10-23T01:31:12.415Z,951.56
2022-10-23T01:31:22.414Z,951.55
2022-10-23T01:31:32.419Z,951.55
2022-10-23T01:31:42.421Z,951.55
2022-10-23T01:31:52.421Z,951.55
2022-10-23T01:32:02.419Z,951.54
2022-10-23T01:32:12.420Z,951.54
2022-10-23T01:32:22.420Z,951.54
2022-10-23T01:32:32.423Z,951.53
2022-10-23T01:32:42.785Z,951.53
2022-10-23T01:32:52.423Z,951.53
2022-10-23T01:33:02.421Z,951.53
2022-10-23T01:33:12.422Z,951.52
2022-10-23T01:33:22.426Z,951.52
2022-10-23T01:33:32.424Z,951.52
2022-10-23T01:33:42.413Z,951.52
2022-10-23T01:33:52.414Z,951.52
2022-10-23T01:34:02.429Z,951.52
2022-10-23T01:34:12.429Z,951.51
2022-10-23T01:34:22.433Z,951.51
2022-10-23T01:34:32.429Z,951.51
2022-10-23T01:34:42.420Z,951.51
2022-10-23T01:34:52.431Z,951.51
2022-10-23T01:35:02.433Z,951.50
2022-10-23T01:35:12.433Z,951.50
2022-10-23T01:35:22.433Z,951.50
2022-10-23T01:35:32.438Z,951.50
2022-10-23T01:35:42.460Z,951.49
2022-10-23T01:35:52.435Z,951.49
2022-10-23T01:36:02.439Z,951.49
2022-10-23T01:36:12.437Z,951.48
2022-10-23T01:36:22.437Z,951.48
2022-10-23T01:36:32.439Z,951.48
2022-10-23T01:36:42.441Z,951.48
2022-10-23T01:36:52.426Z,951.48
2022-10-23T01:37:02.442Z,951.49
2022-10-23T01:37:12.444Z,951.48
2022-10-23T01:37:22.443Z,951.49
2022-10-23T01:37:32.445Z,951.49
2022-10-23T01:37:42.471Z,951.49
2022-10-23T01:37:52.446Z,951.50
2022-10-23T01:38:02.445Z,951.50
2022-10-23T01:38:12.449Z,951.51
2022-10-23T01:38:22.450Z,951.51
2022-10-23T01:38:32.435Z,951.51
2022-10-23T01:38:42.455Z,951.51
2022-10-23T01:38:52.539Z,951.52
2022-10-23T01:39:12.453Z,951.52
2022-10-23T01:39:22.454Z,951.53
2022-10-23T01:39:32.454Z,951.53
2022-10-23T01:39:42.455Z,951.53
2022-10-23T01:39:52.456Z,951.53
2022-10-23T01:40:02.464Z,951.54
2022-10-23T01:40:12.458Z,951.54
2022-10-23T01:40:22.443Z,951.54
2022-10-23T01:40:32.462Z,951.54
2022-10-23T01:40:42.465Z,951.54
2022-10-23T01:40:52.464Z,951.53
2022-10-23T01:41:02.462Z,951.53
2022-10-23T01:41:12.461Z,951.53
2022-10-23T01:41:22.465Z,951.53
2022-10-23T01:41:32.466Z,951.53
2022-10-23T01:41:42.464Z,951.53
2022-10-23T01:41:52.468Z,951.53
2022-10-23T01:42:02.466Z,951.52
2022-10-23T01:42:12.450Z,951.52
2022-10-23T01:42:22.469Z,951.52
2022-10-23T01:42:32.471Z,951.53
2022-10-23T01:42:42.761Z,951.52
2022-10-23T01:42:52.470Z,951.52
2022-10-23T01:43:02.472Z,951.52
2022-10-23T01:43:12.470Z,951.52
2022-10-23T01:43:22.474Z,951.51
2022-10-23T01:43:32.476Z,951.51
2022-10-23T01:43:42.475Z,951.50
2022-10-23T01:43:52.473Z,951.50
2022-10-23T01:44:02.476Z,951.50
2022-10-23T01:44:12.474Z,951.49
2022-10-23T01:44:22.481Z,951.49
2022-10-23T01:44:32.478Z,951.48
2022-10-23T01:44:42.480Z,951.48
2022-10-23T01:44:52.479Z,951.47
2022-10-23T01:45:02.477Z,951.46
2022-10-23T01:45:12.478Z,951.46
2022-10-23T01:45:22.482Z,951.46
2022-10-23T01:45:32.483Z,951.45
2022-10-23T01:45:42.480Z,951.45
2022-10-23T01:45:52.482Z,951.45
2022-10-23T01:46:02.483Z,951.45
2022-10-23T01:46:12.486Z,951.45
2022-10-23T01:46:22.495Z,951.45
2022-10-23T01:46:32.485Z,951.45
2022-10-23T01:46:42.488Z,951.45
2022-10-23T01:46:52.495Z,951.45
2022-10-23T01:47:02.488Z,951.46
2022-10-23T01:47:12.562Z,951.46
2022-10-23T01:47:22.509Z,951.46
2022-10-23T01:47:32.490Z,951.47
2022-10-23T01:47:42.789Z,951.47
2022-10-23T01:47:52.491Z,951.47
2022-10-23T01:48:02.493Z,951.48
2022-10-23T01:48:12.493Z,951.48
2022-10-23T01:48:22.493Z,951.48
2022-10-23T01:48:32.492Z,951.48
2022-10-23T01:48:42.494Z,951.48
2022-10-23T01:48:52.480Z,951.48
2022-10-23T01:49:02.497Z,951.48
2022-10-23T01:49:12.495Z,951.47
2022-10-23T01:49:22.497Z,951.47
2022-10-23T01:49:32.501Z,951.47
2022-10-23T01:49:42.497Z,951.47
2022-10-23T01:49:52.532Z,951.47
2022-10-23T01:50:02.501Z,951.46
2022-10-23T01:50:12.500Z,951.46
2022-10-23T01:50:22.508Z,951.46
2022-10-23T01:50:32.502Z,951.45
2022-10-23T01:50:42.503Z,951.45
2022-10-23T01:50:52.510Z,951.44
2022-10-23T01:51:02.501Z,951.44
2022-10-23T01:51:12.502Z,951.44
2022-10-23T01:51:22.504Z,951.43
2022-10-23T01:51:32.505Z,951.43
2022-10-23T01:51:42.502Z,951.42
2022-10-23T01:51:52.507Z,951.42
2022-10-23T01:52:02.506Z,951.42
2022-10-23T01:52:12.507Z,951.42
2022-10-23T01:52:22.508Z,951.41
2022-10-23T01:52:32.513Z,951.41
2022-10-23T01:52:42.507Z,951.41
2022-10-23T01:52:52.511Z,951.41
2022-10-23T01:53:02.513Z,951.40
2022-10-23T01:53:12.515Z,951.40
2022-10-23T01:53:22.510Z,951.40
2022-10-23T01:53:32.515Z,951.40
2022-10-23T01:53:42.513Z,951.41
2022-10-23T01:53:52.520Z,951.41
2022-10-23T01:54:02.515Z,951.41
2022-10-23T01:54:12.517Z,951.41
2022-10-23T01:54:22.516Z,951.41
2022-10-23T01:54:32.516Z,951.41
2022-10-23T01:54:42.519Z,951.42
2022-10-23T01:54:52.519Z,951.42
2022-10-23T01:55:02.518Z,951.42
2022-10-23T01:55:12.521Z,951.43
2022-10-23T01:55:22.520Z,951.43
2022-10-23T01:55:32.573Z,951.43
2022-10-23T01:55:52.523Z,951.43
2022-10-23T01:56:02.527Z,951.43
2022-10-23T01:56:12.527Z,951.43
2022-10-23T01:56:22.524Z,951.43
2022-10-23T01:56:32.508Z,951.43
2022-10-23T01:56:42.510Z,951.43
2022-10-23T01:56:52.526Z,951.43
2022-10-23T01:57:02.527Z,951.43
2022-10-23T01:57:12.529Z,951.42
2022-10-23T01:57:22.531Z,951.42
2022-10-23T01:57:32.533Z,951.42
2022-10-23T01:57:42.758Z,951.42
2022-10-23T01:57:52.531Z,951.41
2022-10-23T01:58:02.536Z,951.41
2022-10-23T01:58:12.532Z,951.41
2022-10-23T01:58:22.537Z,951.41
2022-10-23T01:58:32.520Z,951.41
2022-10-23T01:58:42.518Z,951.41
2022-10-23T01:58:52.543Z,951.41
2022-10-23T01:59:02.537Z,951.40
2022-10-23T01:59:12.537Z,951.40
2022-10-23T01:59:22.545Z,951.40
2022-10-23T01:59:32.539Z,951.39
2022-10-23T01:59:42.569Z,951.39
2022-10-23T01:59:52.542Z,951.39
2022-10-23T02:00:02.544Z,951.39
2022-10-23T02:00:12.546Z,951.38
2022-10-23T02:00:22.542Z,951.38
2022-10-23T02:00:32.553Z,951.38
2022-10-23T02:00:42.543Z,951.38
2022-10-23T02:00:52.543Z,951.38
2022-10-23T02:01:02.623Z,951.37
2022-10-23T02:01:12.706Z,951.37
2022-10-23T02:01:22.672Z,951.37
2022-10-23T02:01:32.632Z,951.37
2022-10-23T02:01:42.656Z,951.36
2022-10-23T02:01:52.679Z,951.36
2022-10-23T02:02:02.672Z,951.36
2022-10-23T02:02:12.676Z,951.36
2022-10-23T02:02:22.714Z,951.35
2022-10-23T02:02:32.655Z,951.35
2022-10-23T02:02:42.550Z,951.35
2022-10-23T02:02:52.550Z,951.35
2022-10-23T02:03:02.552Z,951.35
2022-10-23T02:03:12.553Z,951.35
2022-10-23T02:03:22.555Z,951.34
2022-10-23T02:03:32.554Z,951.34
2022-10-23T02:03:42.581Z,951.34
2022-10-23T02:03:52.605Z,951.34
2022-10-23T02:04:02.561Z,951.34
2022-10-23T02:04:12.560Z,951.34
2022-10-23T02:04:22.557Z,951.33
2022-10-23T02:04:32.559Z,951.33
2022-10-23T02:04:42.563Z,951.33
2022-10-23T02:04:52.560Z,951.33
2022-10-23T02:05:02.563Z,951.32
2022-10-23T02:05:12.562Z,951.32
2022-10-23T02:05:22.564Z,951.32
2022-10-23T02:05:32.550Z,951.32
2022-10-23T02:05:42.561Z,951.32
2022-10-23T02:05:52.563Z,951.32